Wetterdaten: Woche 16.03.26 - 22.03.26 (KW12)
Datum Zeit Temp. Aussen Temp. o. S. Temp +5cm Feuchte Auss Luftdruck Regen Sonnenschein Solar Windböen Empfang
16.03.2026 00:00 6,4 °C 5,3 °C 1,6 °C 81 % 1011,9 hPa 1,4 l/m² 0,00 h 0 W/m² 22,5 km/h (4 Bft) 96,58 %
16.03.2026 01:00 5,7 °C 4,2 °C 0,6 °C 90 % 1011,3 hPa 0,5 l/m² 0,00 h 0 W/m² 27,7 km/h (4 Bft) 99,06 %
16.03.2026 02:00 5,9 °C 5,0 °C 0,6 °C 91 % 1010,4 hPa 0,0 l/m² 0,00 h 0 W/m² 30,0 km/h (5 Bft) 95,13 %
16.03.2026 03:00 6,3 °C 5,3 °C 1,1 °C 91 % 1010,3 hPa 1,9 l/m² 0,00 h 0 W/m² 21,6 km/h (4 Bft) 97,83 %
16.03.2026 04:00 5,7 °C 4,9 °C 1,0 °C 94 % 1010,1 hPa 0,2 l/m² 0,00 h 0 W/m² 11,4 km/h (2 Bft) 97,63 %
16.03.2026 05:00 5,6 °C 4,7 °C 0,9 °C 95 % 1010,4 hPa 0,0 l/m² 0,00 h 0 W/m² 13,0 km/h (3 Bft) 96,51 %
16.03.2026 06:00 4,9 °C 4,1 °C 0,3 °C 95 % 1011,4 hPa 1,4 l/m² 0,00 h 0 W/m² 17,7 km/h (3 Bft) 98,75 %
16.03.2026 07:00 4,8 °C 4,0 °C 0,0 °C 94 % 1012,3 hPa 0,0 l/m² 0,00 h 18 W/m² 14,7 km/h (3 Bft) 96,24 %
16.03.2026 08:00 5,7 °C 5,8 °C 0,6 °C 92 % 1013,2 hPa 0,0 l/m² 0,25 h 85 W/m² 18,1 km/h (3 Bft) 97,40 %
16.03.2026 09:00 7,3 °C 10,6 °C 2,2 °C 85 % 1014,0 hPa 0,0 l/m² 0,68 h 238 W/m² 20,6 km/h (4 Bft) 96,75 %
16.03.2026 10:00 8,0 °C 9,7 °C 4,3 °C 80 % 1014,7 hPa 0,0 l/m² 0,32 h 233 W/m² 24,0 km/h (4 Bft) 96,62 %
16.03.2026 11:00 9,4 °C 14,3 °C 9,4 °C 73 % 1015,4 hPa 0,0 l/m² 0,82 h 515 W/m² 19,5 km/h (3 Bft) 94,27 %
16.03.2026 12:00 9,9 °C 12,4 °C 7,4 °C 71 % 1015,9 hPa 0,2 l/m² 0,33 h 260 W/m² 20,6 km/h (4 Bft) 98,35 %
16.03.2026 13:00 11,4 °C 18,0 °C 7,1 °C 65 % 1016,2 hPa 0,0 l/m² 1,00 h 674 W/m² 22,7 km/h (4 Bft) 98,05 %
16.03.2026 14:00 11,5 °C 14,2 °C 7,0 °C 62 % 1016,6 hPa 0,0 l/m² 0,65 h 326 W/m² 17,8 km/h (3 Bft) 98,04 %
16.03.2026 15:00 11,0 °C 12,6 °C 6,6 °C 64 % 1017,2 hPa 0,0 l/m² 0,53 h 283 W/m² 16,8 km/h (3 Bft) 97,46 %
16.03.2026 16:00 11,1 °C 11,5 °C 6,5 °C 62 % 1017,6 hPa 0,0 l/m² 0,40 h 164 W/m² 15,3 km/h (3 Bft) 96,70 %
16.03.2026 17:00 10,0 °C 9,5 °C 5,3 °C 67 % 1018,3 hPa 0,0 l/m² 0,13 h 54 W/m² 8,7 km/h (2 Bft) 98,55 %
16.03.2026 18:00 9,1 °C 7,6 °C 3,9 °C 70 % 1019,0 hPa 0,0 l/m² 0,00 h 10 W/m² 3,3 km/h (1 Bft) 96,80 %
16.03.2026 19:00 8,1 °C 6,7 °C 2,7 °C 76 % 1019,7 hPa 0,0 l/m² 0,00 h 0 W/m² 0,9 km/h (0 Bft) 97,51 %
16.03.2026 20:00 7,6 °C 6,6 °C 2,7 °C 79 % 1020,0 hPa 0,0 l/m² 0,00 h 0 W/m² 1,2 km/h (1 Bft) 95,40 %
16.03.2026 21:00 7,3 °C 6,4 °C 2,6 °C 81 % 1020,4 hPa 0,0 l/m² 0,00 h 0 W/m² 2,1 km/h (1 Bft) 99,93 %
16.03.2026 22:00 7,4 °C 6,7 °C 3,2 °C 81 % 1020,5 hPa 0,0 l/m² 0,00 h 0 W/m² 7,5 km/h (2 Bft) 99,49 %
16.03.2026 23:00 7,4 °C 6,7 °C 3,0 °C 81 % 1020,7 hPa 0,0 l/m² 0,00 h 0 W/m² 6,2 km/h (2 Bft) 96,20 %
17.03.2026 00:00 7,2 °C 6,2 °C 2,8 °C 84 % 1020,7 hPa 0,0 l/m² 0,00 h 0 W/m² 7,2 km/h (2 Bft) 99,93 %
17.03.2026 01:00 7,2 °C 6,2 °C 2,8 °C 88 % 1020,6 hPa 0,0 l/m² 0,00 h 0 W/m² 9,4 km/h (2 Bft) 99,27 %
17.03.2026 02:00 7,1 °C 6,3 °C 2,8 °C 89 % 1020,6 hPa 0,0 l/m² 0,00 h 0 W/m² 5,3 km/h (1 Bft) 97,51 %
17.03.2026 03:00 7,3 °C 6,7 °C 2,8 °C 91 % 1020,4 hPa 0,0 l/m² 0,00 h 0 W/m² 5,6 km/h (1 Bft) 98,98 %
17.03.2026 04:00 7,4 °C 6,7 °C 3,1 °C 92 % 1020,3 hPa 0,0 l/m² 0,00 h 0 W/m² 7,8 km/h (2 Bft) 100,00 %
17.03.2026 05:00 7,6 °C 7,2 °C 3,3 °C 92 % 1020,5 hPa 0,0 l/m² 0,00 h 0 W/m² 8,0 km/h (2 Bft) 98,69 %
17.03.2026 06:00 7,7 °C 7,2 °C 3,3 °C 92 % 1020,7 hPa 0,0 l/m² 0,00 h 5 W/m² 5,5 km/h (1 Bft) 98,83 %
17.03.2026 07:00 7,8 °C 7,3 °C 3,4 °C 93 % 1021,1 hPa 0,0 l/m² 0,00 h 28 W/m² 8,6 km/h (2 Bft) 97,05 %
17.03.2026 08:00 8,2 °C 8,2 °C 4,3 °C 93 % 1021,5 hPa 0,0 l/m² 0,00 h 65 W/m² 8,6 km/h (2 Bft) 95,66 %
17.03.2026 09:00 9,2 °C 9,2 °C 5,1 °C 92 % 1021,7 hPa 0,0 l/m² 0,00 h 107 W/m² 13,2 km/h (3 Bft) 97,22 %
17.03.2026 10:00 9,6 °C 9,6 °C 5,7 °C 93 % 1021,8 hPa 0,0 l/m² 0,00 h 119 W/m² 12,4 km/h (3 Bft) 97,50 %
17.03.2026 11:00 10,4 °C 10,8 °C 6,6 °C 92 % 1021,7 hPa 0,0 l/m² 0,00 h 130 W/m² 8,5 km/h (2 Bft) 95,78 %
17.03.2026 12:00 11,5 °C 12,1 °C 7,7 °C 88 % 1021,6 hPa 0,0 l/m² 0,00 h 179 W/m² 10,7 km/h (2 Bft) 98,79 %
17.03.2026 13:00 12,6 °C 13,3 °C 8,6 °C 84 % 1021,4 hPa 0,0 l/m² 0,03 h 216 W/m² 11,6 km/h (2 Bft) 96,89 %
17.03.2026 14:00 12,4 °C 12,0 °C 7,8 °C 85 % 1021,1 hPa 0,0 l/m² 0,00 h 105 W/m² 13,6 km/h (3 Bft) 97,50 %
17.03.2026 15:00 12,4 °C 12,3 °C 8,1 °C 85 % 1020,8 hPa 0,0 l/m² 0,00 h 115 W/m² 13,6 km/h (3 Bft) 97,41 %
17.03.2026 16:00 13,0 °C 13,1 °C 8,7 °C 82 % 1020,4 hPa 0,0 l/m² 0,40 h 154 W/m² 15,5 km/h (3 Bft) 98,51 %
17.03.2026 17:00 12,9 °C 12,2 °C 8,3 °C 81 % 1020,3 hPa 0,0 l/m² 0,03 h 68 W/m² 11,4 km/h (2 Bft) 96,87 %
17.03.2026 18:00 12,3 °C 11,1 °C 7,3 °C 82 % 1020,6 hPa 0,0 l/m² 0,00 h 16 W/m² 5,5 km/h (1 Bft) 97,44 %
17.03.2026 19:00 10,9 °C 9,4 °C 5,8 °C 86 % 1021,0 hPa 0,0 l/m² 0,00 h 0 W/m² 3,1 km/h (1 Bft) 97,73 %
17.03.2026 20:00 10,2 °C 9,0 °C 5,2 °C 87 % 1021,3 hPa 0,0 l/m² 0,00 h 0 W/m² 3,0 km/h (1 Bft) 97,53 %
17.03.2026 21:00 9,7 °C 8,8 °C 5,1 °C 88 % 1021,5 hPa 0,0 l/m² 0,00 h 0 W/m² 6,6 km/h (2 Bft) 96,83 %
17.03.2026 22:00 9,7 °C 8,9 °C 5,0 °C 88 % 1021,8 hPa 0,0 l/m² 0,00 h 0 W/m² 7,7 km/h (2 Bft) 96,31 %
17.03.2026 23:00 9,7 °C 8,9 °C 5,0 °C 88 % 1022,1 hPa 0,0 l/m² 0,00 h 0 W/m² 14,2 km/h (3 Bft) 98,64 %
18.03.2026 00:00 9,3 °C 8,2 °C 4,7 °C 87 % 1022,3 hPa 0,0 l/m² 0,00 h 0 W/m² 12,0 km/h (2 Bft) 96,57 %
18.03.2026 01:00 8,7 °C 7,8 °C 4,1 °C 88 % 1022,7 hPa 0,0 l/m² 0,00 h 0 W/m² 12,5 km/h (3 Bft) 97,94 %
18.03.2026 02:00 8,6 °C 7,8 °C 4,3 °C 87 % 1022,9 hPa 0,0 l/m² 0,00 h 0 W/m² 16,3 km/h (3 Bft) 98,29 %
18.03.2026 03:00 8,5 °C 7,5 °C 4,1 °C 85 % 1022,9 hPa 0,0 l/m² 0,00 h 0 W/m² 18,2 km/h (3 Bft) 95,25 %
18.03.2026 04:00 8,0 °C 7,1 °C 3,4 °C 84 % 1023,4 hPa 0,0 l/m² 0,00 h 0 W/m² 16,0 km/h (3 Bft) 96,31 %
18.03.2026 05:00 7,4 °C 6,4 °C 2,8 °C 83 % 1023,9 hPa 0,0 l/m² 0,00 h 0 W/m² 11,7 km/h (2 Bft) 99,07 %
18.03.2026 06:00 6,7 °C 5,7 °C 2,1 °C 83 % 1024,4 hPa 0,0 l/m² 0,00 h 6 W/m² 8,9 km/h (2 Bft) 95,17 %
18.03.2026 07:00 6,3 °C 5,8 °C 1,9 °C 82 % 1025,3 hPa 0,0 l/m² 0,00 h 18 W/m² 8,1 km/h (2 Bft) 98,48 %
18.03.2026 08:00 7,4 °C 7,8 °C 3,3 °C 77 % 1026,1 hPa 0,0 l/m² 0,23 h 82 W/m² 15,6 km/h (3 Bft) 98,75 %
18.03.2026 09:00 9,9 °C 14,1 °C 6,7 °C 66 % 1026,8 hPa 0,0 l/m² 0,87 h 278 W/m² 20,4 km/h (4 Bft) 96,08 %
18.03.2026 10:00 11,3 °C 15,2 °C 9,6 °C 56 % 1027,0 hPa 0,0 l/m² 0,90 h 394 W/m² 26,0 km/h (4 Bft) 96,75 %
18.03.2026 11:00 12,9 °C 19,7 °C 14,1 °C 52 % 1027,0 hPa 0,0 l/m² 1,00 h 631 W/m² 23,7 km/h (4 Bft) 96,44 %
18.03.2026 12:00 14,5 °C 22,4 °C 13,0 °C 49 % 1026,8 hPa 0,0 l/m² 1,00 h 668 W/m² 18,2 km/h (3 Bft) 97,01 %
18.03.2026 13:00 16,1 °C 24,1 °C 11,7 °C 45 % 1026,1 hPa 0,0 l/m² 1,00 h 654 W/m² 18,2 km/h (3 Bft) 98,02 %
18.03.2026 14:00 17,3 °C 24,8 °C 12,8 °C 43 % 1025,6 hPa 0,0 l/m² 1,00 h 588 W/m² 14,8 km/h (3 Bft) 98,72 %
18.03.2026 15:00 17,8 °C 23,1 °C 13,8 °C 43 % 1024,9 hPa 0,0 l/m² 0,92 h 459 W/m² 15,0 km/h (3 Bft) 96,16 %
18.03.2026 16:00 17,5 °C 21,2 °C 12,0 °C 44 % 1024,8 hPa 0,0 l/m² 1,00 h 317 W/m² 14,1 km/h (3 Bft) 98,57 %
18.03.2026 17:00 16,6 °C 16,1 °C 11,0 °C 46 % 1024,8 hPa 0,0 l/m² 0,80 h 120 W/m² 15,1 km/h (3 Bft) 97,61 %
18.03.2026 18:00 14,7 °C 12,9 °C 8,9 °C 52 % 1025,2 hPa 0,0 l/m² 0,00 h 15 W/m² 6,8 km/h (2 Bft) 96,18 %
18.03.2026 19:00 12,3 °C 9,5 °C 5,8 °C 61 % 1025,7 hPa 0,0 l/m² 0,00 h 0 W/m² 0,9 km/h (0 Bft) 99,36 %
18.03.2026 20:00 10,1 °C 8,0 °C 4,2 °C 68 % 1026,0 hPa 0,0 l/m² 0,00 h 0 W/m² 2,3 km/h (1 Bft) 93,59 %
18.03.2026 21:00 9,1 °C 7,4 °C 3,9 °C 70 % 1026,3 hPa 0,0 l/m² 0,00 h 0 W/m² 4,5 km/h (1 Bft) 97,58 %
18.03.2026 22:00 8,6 °C 6,9 °C 3,6 °C 72 % 1026,6 hPa 0,0 l/m² 0,00 h 0 W/m² 4,6 km/h (1 Bft) 98,44 %
18.03.2026 23:00 8,0 °C 6,0 °C 2,5 °C 74 % 1026,7 hPa 0,0 l/m² 0,00 h 0 W/m² 1,9 km/h (1 Bft) 96,42 %
19.03.2026 00:00 6,8 °C 4,6 °C 1,2 °C 76 % 1026,9 hPa 0,0 l/m² 0,00 h 0 W/m² 0,2 km/h (0 Bft) 97,77 %
19.03.2026 01:00 5,6 °C 4,1 °C 0,6 °C 80 % 1027,1 hPa 0,0 l/m² 0,00 h 0 W/m² 0,6 km/h (0 Bft) 97,49 %
19.03.2026 02:00 5,0 °C 3,4 °C 0,1 °C 83 % 1027,1 hPa 0,0 l/m² 0,00 h 0 W/m² 0,0 km/h (0 Bft) 98,45 %
19.03.2026 03:00 4,2 °C 3,0 °C -0,4 °C 85 % 1026,9 hPa 0,0 l/m² 0,00 h 0 W/m² 0,0 km/h (0 Bft) 95,71 %
19.03.2026 04:00 3,7 °C 2,6 °C -0,7 °C 87 % 1026,7 hPa 0,0 l/m² 0,00 h 0 W/m² 0,1 km/h (0 Bft) 96,07 %
19.03.2026 05:00 3,3 °C 2,2 °C -1,1 °C 88 % 1026,7 hPa 0,0 l/m² 0,00 h 0 W/m² 0,3 km/h (0 Bft) 98,70 %
19.03.2026 06:00 3,1 °C 2,1 °C -1,1 °C 90 % 1026,9 hPa 0,0 l/m² 0,00 h 7 W/m² 0,2 km/h (0 Bft) 98,22 %
19.03.2026 07:00 2,8 °C 2,3 °C -1,2 °C 90 % 1027,2 hPa 0,0 l/m² 0,00 h 24 W/m² 0,1 km/h (0 Bft) 94,43 %
19.03.2026 08:00 3,7 °C 5,8 °C 0,8 °C 93 % 1027,8 hPa 0,0 l/m² 0,20 h 89 W/m² 0,7 km/h (0 Bft) 96,20 %
19.03.2026 09:00 8,7 °C 17,9 °C 6,9 °C 89 % 1027,9 hPa 0,0 l/m² 0,97 h 257 W/m² 3,0 km/h (1 Bft) 97,99 %
19.03.2026 10:00 13,4 °C 19,9 °C 11,7 °C 67 % 1027,7 hPa 0,0 l/m² 0,97 h 390 W/m² 5,7 km/h (1 Bft) 97,80 %
19.03.2026 11:00 16,3 °C 26,7 °C 18,2 °C 56 % 1027,3 hPa 0,0 l/m² 1,00 h 585 W/m² 7,0 km/h (2 Bft) 98,30 %
19.03.2026 12:00 17,9 °C 28,5 °C 15,7 °C 50 % 1026,5 hPa 0,0 l/m² 1,00 h 651 W/m² 10,0 km/h (2 Bft) 98,43 %
19.03.2026 13:00 18,6 °C 28,3 °C 13,4 °C 47 % 1025,7 hPa 0,0 l/m² 1,00 h 631 W/m² 12,7 km/h (3 Bft) 97,72 %
19.03.2026 14:00 18,9 °C 27,1 °C 14,2 °C 44 % 1024,9 hPa 0,0 l/m² 1,00 h 572 W/m² 11,5 km/h (2 Bft) 97,65 %
19.03.2026 15:00 19,1 °C 24,4 °C 14,2 °C 44 % 1024,2 hPa 0,0 l/m² 1,00 h 451 W/m² 11,3 km/h (2 Bft) 94,98 %
19.03.2026 16:00 18,2 °C 21,8 °C 12,2 °C 46 % 1023,6 hPa 0,0 l/m² 1,00 h 294 W/m² 8,7 km/h (2 Bft) 98,86 %
19.03.2026 17:00 16,8 °C 16,9 °C 11,1 °C 50 % 1023,5 hPa 0,0 l/m² 0,80 h 116 W/m² 11,1 km/h (2 Bft) 97,10 %
19.03.2026 18:00 15,0 °C 13,5 °C 9,4 °C 55 % 1023,4 hPa 0,0 l/m² 0,00 h 17 W/m² 7,3 km/h (2 Bft) 96,59 %
19.03.2026 19:00 13,4 °C 10,9 °C 6,7 °C 60 % 1023,5 hPa 0,0 l/m² 0,00 h 0 W/m² 0,3 km/h (0 Bft) 98,29 %
19.03.2026 20:00 11,7 °C 9,7 °C 5,3 °C 65 % 1023,5 hPa 0,0 l/m² 0,00 h 0 W/m² 0,0 km/h (0 Bft) 96,81 %
19.03.2026 21:00 10,3 °C 7,9 °C 3,8 °C 69 % 1023,5 hPa 0,0 l/m² 0,00 h 0 W/m² 0,0 km/h (0 Bft) 95,17 %
19.03.2026 22:00 8,8 °C 6,6 °C 2,9 °C 75 % 1023,4 hPa 0,0 l/m² 0,00 h 0 W/m² 0,1 km/h (0 Bft) 98,44 %
19.03.2026 23:00 7,5 °C 5,7 °C 2,1 °C 79 % 1023,2 hPa 0,0 l/m² 0,00 h 0 W/m² 0,0 km/h (0 Bft) 97,78 %
20.03.2026 00:00 6,5 °C 4,6 °C 1,3 °C 81 % 1023,1 hPa 0,0 l/m² 0,00 h 0 W/m² 0,0 km/h (0 Bft) 95,63 %
20.03.2026 01:00 5,5 °C 4,0 °C 0,7 °C 83 % 1022,9 hPa 0,0 l/m² 0,00 h 0 W/m² 0,0 km/h (0 Bft) 97,93 %
20.03.2026 02:00 4,8 °C 3,9 °C 0,6 °C 86 % 1022,4 hPa 0,0 l/m² 0,00 h 0 W/m² 0,0 km/h (0 Bft) 96,23 %
20.03.2026 03:00 4,5 °C 3,6 °C 0,6 °C 87 % 1021,9 hPa 0,0 l/m² 0,00 h 0 W/m² 0,0 km/h (0 Bft) 98,58 %
20.03.2026 04:00 3,9 °C 2,6 °C -0,5 °C 87 % 1021,8 hPa 0,0 l/m² 0,00 h 0 W/m² 0,0 km/h (0 Bft) 98,68 %
20.03.2026 05:00 3,3 °C 2,2 °C -0,9 °C 88 % 1021,7 hPa 0,0 l/m² 0,00 h 0 W/m² 0,1 km/h (0 Bft) 96,57 %
20.03.2026 06:00 3,1 °C 2,7 °C -0,5 °C 89 % 1021,9 hPa 0,0 l/m² 0,00 h 11 W/m² 0,1 km/h (0 Bft) 95,56 %
20.03.2026 07:00 4,2 °C 4,9 °C 1,1 °C 92 % 1022,1 hPa 0,0 l/m² 0,00 h 45 W/m² 4,0 km/h (1 Bft) 97,80 %
20.03.2026 08:00 6,3 °C 8,2 °C 3,2 °C 91 % 1022,5 hPa 0,0 l/m² 0,37 h 134 W/m² 4,0 km/h (1 Bft) 96,93 %
20.03.2026 09:00 8,8 °C 12,1 °C 5,9 °C 83 % 1022,7 hPa 0,0 l/m² 0,67 h 221 W/m² 8,8 km/h (2 Bft) 95,59 %
20.03.2026 10:00 11,4 °C 16,2 °C 8,8 °C 74 % 1022,6 hPa 0,0 l/m² 0,77 h 316 W/m² 8,6 km/h (2 Bft) 96,00 %
20.03.2026 11:00 13,6 °C 22,1 °C 13,9 °C 65 % 1022,2 hPa 0,0 l/m² 1,00 h 536 W/m² 10,3 km/h (2 Bft) 99,10 %
20.03.2026 12:00 15,9 °C 26,6 °C 13,6 °C 55 % 1021,6 hPa 0,0 l/m² 1,00 h 646 W/m² 11,6 km/h (2 Bft) 96,25 %
20.03.2026 13:00 16,9 °C 26,7 °C 12,3 °C 54 % 1021,0 hPa 0,0 l/m² 1,00 h 601 W/m² 10,3 km/h (2 Bft) 99,29 %
20.03.2026 14:00 17,6 °C 23,9 °C 12,7 °C 53 % 1020,3 hPa 0,0 l/m² 1,00 h 530 W/m² 11,5 km/h (2 Bft) 97,27 %
20.03.2026 15:00 17,3 °C 21,6 °C 12,5 °C 53 % 1019,8 hPa 0,0 l/m² 1,00 h 417 W/m² 11,7 km/h (2 Bft) 96,11 %
20.03.2026 16:00 16,6 °C 19,2 °C 11,2 °C 56 % 1019,4 hPa 0,0 l/m² 0,97 h 286 W/m² 10,2 km/h (2 Bft) 97,79 %
20.03.2026 17:00 15,2 °C 14,8 °C 10,3 °C 62 % 1019,1 hPa 0,0 l/m² 0,43 h 91 W/m² 9,2 km/h (2 Bft) 98,29 %
20.03.2026 18:00 13,5 °C 11,9 °C 8,0 °C 67 % 1019,2 hPa 0,0 l/m² 0,20 h 25 W/m² 3,0 km/h (1 Bft) 95,52 %
20.03.2026 19:00 12,0 °C 9,5 °C 5,9 °C 70 % 1019,2 hPa 0,0 l/m² 0,00 h 0 W/m² 1,1 km/h (1 Bft) 100,00 %
20.03.2026 20:00 10,3 °C 8,5 °C 4,9 °C 75 % 1019,4 hPa 0,0 l/m² 0,00 h 0 W/m² 1,9 km/h (1 Bft) 97,44 %
20.03.2026 21:00 9,2 °C 7,8 °C 4,2 °C 78 % 1019,4 hPa 0,0 l/m² 0,00 h 0 W/m² 2,2 km/h (1 Bft) 96,20 %
20.03.2026 22:00 8,5 °C 7,2 °C 3,6 °C 80 % 1019,4 hPa 0,0 l/m² 0,00 h 0 W/m² 2,9 km/h (1 Bft) 98,33 %
20.03.2026 23:00 8,1 °C 7,0 °C 3,4 °C 82 % 1019,2 hPa 0,0 l/m² 0,00 h 0 W/m² 6,8 km/h (2 Bft) 97,67 %
21.03.2026 00:00 7,6 °C 6,5 °C 3,0 °C 82 % 1018,8 hPa 0,0 l/m² 0,00 h 0 W/m² 6,7 km/h (2 Bft) 95,93 %
21.03.2026 01:00 7,0 °C 5,8 °C 2,3 °C 83 % 1018,6 hPa 0,0 l/m² 0,00 h 0 W/m² 4,4 km/h (1 Bft) 97,30 %
21.03.2026 02:00 6,3 °C 5,0 °C 1,8 °C 84 % 1018,5 hPa 0,0 l/m² 0,00 h 0 W/m² 1,8 km/h (1 Bft) 96,34 %
21.03.2026 03:00 5,7 °C 4,3 °C 1,1 °C 85 % 1018,4 hPa 0,0 l/m² 0,00 h 0 W/m² 0,1 km/h (0 Bft) 97,89 %
21.03.2026 04:00 5,1 °C 3,6 °C 0,3 °C 86 % 1018,3 hPa 0,0 l/m² 0,00 h 0 W/m² 0,0 km/h (0 Bft) 94,05 %
21.03.2026 05:00 4,6 °C 3,6 °C 0,4 °C 87 % 1018,3 hPa 0,0 l/m² 0,00 h 0 W/m² 1,6 km/h (1 Bft) 98,26 %
21.03.2026 06:00 4,4 °C 3,3 °C 0,1 °C 89 % 1018,4 hPa 0,0 l/m² 0,00 h 9 W/m² 3,0 km/h (1 Bft) 96,74 %
21.03.2026 07:00 4,3 °C 3,9 °C 0,4 °C 90 % 1018,6 hPa 0,0 l/m² 0,00 h 31 W/m² 4,5 km/h (1 Bft) 96,02 %
21.03.2026 08:00 5,5 °C 6,4 °C 1,9 °C 91 % 1018,8 hPa 0,0 l/m² 0,20 h 93 W/m² 8,9 km/h (2 Bft) 97,96 %
21.03.2026 09:00 9,0 °C 15,9 °C 5,6 °C 82 % 1018,8 hPa 0,0 l/m² 0,97 h 291 W/m² 9,1 km/h (2 Bft) 98,79 %
21.03.2026 10:00 11,9 °C 18,1 °C 10,3 °C 72 % 1018,7 hPa 0,0 l/m² 0,97 h 431 W/m² 9,6 km/h (2 Bft) 97,65 %
21.03.2026 11:00 14,5 °C 25,4 °C 16,1 °C 64 % 1018,3 hPa 0,0 l/m² 1,00 h 630 W/m² 11,9 km/h (2 Bft) 98,50 %
21.03.2026 12:00 15,6 °C 25,9 °C 13,5 °C 57 % 1017,9 hPa 0,0 l/m² 1,00 h 666 W/m² 15,8 km/h (3 Bft) 99,68 %
21.03.2026 13:00 16,1 °C 25,3 °C 11,2 °C 54 % 1017,3 hPa 0,0 l/m² 1,00 h 655 W/m² 18,6 km/h (3 Bft) 95,95 %
21.03.2026 14:00 16,9 °C 23,8 °C 12,0 °C 53 % 1016,8 hPa 0,0 l/m² 1,00 h 590 W/m² 16,8 km/h (3 Bft) 97,72 %
21.03.2026 15:00 16,6 °C 21,4 °C 12,2 °C 54 % 1016,3 hPa 0,0 l/m² 1,00 h 473 W/m² 15,9 km/h (3 Bft) 97,44 %
21.03.2026 16:00 15,5 °C 18,7 °C 9,9 °C 55 % 1015,8 hPa 0,0 l/m² 1,00 h 317 W/m² 15,1 km/h (3 Bft) 97,43 %
21.03.2026 17:00 13,8 °C 13,8 °C 8,8 °C 64 % 1015,8 hPa 0,0 l/m² 0,97 h 129 W/m² 15,8 km/h (3 Bft) 98,15 %
21.03.2026 18:00 11,1 °C 9,9 °C 6,4 °C 74 % 1016,3 hPa 0,0 l/m² 0,00 h 21 W/m² 17,1 km/h (3 Bft) 97,11 %
21.03.2026 19:00 9,2 °C 7,9 °C 4,7 °C 80 % 1016,8 hPa 0,0 l/m² 0,00 h 0 W/m² 9,6 km/h (2 Bft) 96,73 %
21.03.2026 20:00 8,1 °C 6,7 °C 3,5 °C 84 % 1016,7 hPa 0,0 l/m² 0,00 h 0 W/m² 7,9 km/h (2 Bft) 98,00 %
21.03.2026 21:00 6,9 °C 5,8 °C 2,5 °C 87 % 1016,6 hPa 0,0 l/m² 0,00 h 0 W/m² 6,6 km/h (2 Bft) 95,61 %
21.03.2026 22:00 6,3 °C 5,3 °C 2,0 °C 90 % 1016,7 hPa 0,0 l/m² 0,00 h 0 W/m² 3,9 km/h (1 Bft) 95,95 %
21.03.2026 23:00 5,8 °C 4,5 °C 1,7 °C 91 % 1016,6 hPa 0,0 l/m² 0,00 h 0 W/m² 3,4 km/h (1 Bft) 94,91 %
22.03.2026 00:00 5,6 °C 4,4 °C 1,2 °C 92 % 1016,5 hPa 0,0 l/m² 0,00 h 0 W/m² 4,4 km/h (1 Bft) 99,04 %
22.03.2026 01:00 5,2 °C 4,0 °C 0,9 °C 92 % 1016,4 hPa 0,0 l/m² 0,00 h 0 W/m² 3,6 km/h (1 Bft) 95,58 %
22.03.2026 02:00 4,8 °C 3,5 °C 0,5 °C 92 % 1016,3 hPa 0,0 l/m² 0,00 h 0 W/m² 2,8 km/h (1 Bft) 97,01 %
22.03.2026 03:00 4,3 °C 2,9 °C 0,0 °C 92 % 1016,3 hPa 0,0 l/m² 0,00 h 0 W/m² 2,5 km/h (1 Bft) 96,19 %
22.03.2026 04:00 3,9 °C 2,7 °C -0,4 °C 93 % 1016,6 hPa 0,0 l/m² 0,00 h 0 W/m² 3,0 km/h (1 Bft) 96,66 %
22.03.2026 05:00 3,5 °C 2,1 °C -0,8 °C 94 % 1016,7 hPa 0,0 l/m² 0,00 h 0 W/m² 0,0 km/h (0 Bft) 94,12 %
22.03.2026 06:00 3,0 °C 2,2 °C -1,1 °C 94 % 1016,9 hPa 0,0 l/m² 0,00 h 9 W/m² 1,4 km/h (1 Bft) 96,57 %
22.03.2026 07:00 3,2 °C 2,8 °C -0,6 °C 95 % 1017,1 hPa 0,0 l/m² 0,00 h 29 W/m² 0,2 km/h (0 Bft) 97,16 %
22.03.2026 08:00 4,5 °C 5,9 °C 1,3 °C 96 % 1017,3 hPa 0,0 l/m² 0,10 h 85 W/m² 3,1 km/h (1 Bft) 97,58 %
22.03.2026 09:00 8,3 °C 16,0 °C 5,4 °C 90 % 1017,2 hPa 0,0 l/m² 0,90 h 293 W/m² 6,4 km/h (2 Bft) 98,36 %
22.03.2026 10:00 11,1 °C 17,4 °C 9,9 °C 75 % 1017,1 hPa 0,0 l/m² 0,93 h 410 W/m² 7,8 km/h (2 Bft) 99,36 %
22.03.2026 11:00 14,1 °C 24,5 °C 16,1 °C 66 % 1016,6 hPa 0,0 l/m² 1,00 h 617 W/m² 9,0 km/h (2 Bft) 96,32 %
22.03.2026 12:00 16,0 °C 26,8 °C 13,9 °C 59 % 1016,1 hPa 0,0 l/m² 1,00 h 660 W/m² 8,7 km/h (2 Bft) 99,77 %
22.03.2026 13:00 17,4 °C 26,7 °C 12,1 °C 54 % 1015,4 hPa 0,0 l/m² 1,00 h 640 W/m² 10,3 km/h (2 Bft) 97,38 %
22.03.2026 14:00 18,3 °C 24,8 °C 12,8 °C 51 % 1014,9 hPa 0,0 l/m² 1,00 h 573 W/m² 12,7 km/h (3 Bft) 96,81 %
22.03.2026 15:00 18,3 °C 21,8 °C 12,8 °C 50 % 1014,5 hPa 0,0 l/m² 0,83 h 400 W/m² 10,1 km/h (2 Bft) 97,88 %
22.03.2026 16:00 17,3 °C 20,8 °C 11,6 °C 45 % 1014,2 hPa 0,0 l/m² 0,93 h 307 W/m² 8,4 km/h (2 Bft) 98,36 %
22.03.2026 17:00 16,7 °C 17,0 °C 11,1 °C 47 % 1014,2 hPa 0,0 l/m² 0,90 h 136 W/m² 6,8 km/h (2 Bft) 96,94 %
22.03.2026 18:00 14,9 °C 13,0 °C 8,7 °C 55 % 1014,5 hPa 0,0 l/m² 0,00 h 19 W/m² 2,9 km/h (1 Bft) 98,62 %
22.03.2026 19:00 12,5 °C 9,2 °C 5,3 °C 64 % 1014,8 hPa 0,0 l/m² 0,00 h 0 W/m² 0,0 km/h (0 Bft) 96,30 %
22.03.2026 20:00 10,1 °C 7,4 °C 3,9 °C 70 % 1014,9 hPa 0,0 l/m² 0,00 h 0 W/m² 0,0 km/h (0 Bft) 98,72 %
22.03.2026 21:00 8,4 °C 6,2 °C 2,9 °C 74 % 1015,2 hPa 0,0 l/m² 0,00 h 0 W/m² 0,0 km/h (0 Bft) 97,73 %
22.03.2026 22:00 7,1 °C 5,4 °C 2,0 °C 77 % 1015,4 hPa 0,0 l/m² 0,00 h 0 W/m² 0,0 km/h (0 Bft) 95,19 %
22.03.2026 23:00 6,1 °C 4,6 °C 1,4 °C 79 % 1015,7 hPa 0,0 l/m² 0,00 h 0 W/m² 0,0 km/h (0 Bft) 97,05 %
Min-Datum _ 19.03.26 19.03.26 19.03.26 18.03.26 16.03.26 - - - 16.03.26 22.03.26
_ Min-Zeit 07:20 06:48 06:58 14:56 04:08 - - - 18:32 22:02
Minimum _ 2,7 °C 1,7 °C -1,7 °C 40 % 1009,9 hPa - - - 0,0 km/h (0 Bft) 9,09 %
Max-Datum _ 19.03.26 19.03.26 19.03.26 22.03.26 19.03.26 16.03.26 18.03.26 16.03.26 16.03.26 16.03.26
_ Max-Zeit 15:06 12:38 11:50 09:04 08:54 03:28 11:07 13:47 02:08 00:52
Maximum _ 19,5 °C 30,6 °C 20,0 °C 97 % 1028,0 hPa 1,9 l/m² 0,08 h 742 W/m² 57,9 km/h
SW (7 Bft)
100,00 %
Durchschnitt _ 9,8 °C 10,9 °C 5,5 °C 76 % 1020,2 hPa #5,8 l/m² #49:20 h 276 W/m² 8,4 km/h (2 Bft) 97,32 %
© 2026 W. Hausmann